Time;durP1;ratioP1;P1;durP2;ratioP2;P2;SDS_P1;SDS_P2;PMS_P1;PMS_P2;Temp;Humidity;BMP_temperature;BMP_pressure;BME280_temperature;BME280_humidity;BME280_pressure;Samples;Min_cycle;Max_cycle;Signal;HPM_P1;HPM_P2
2022/11/12 00:00:37;;;;;;;9.13;5.80;;;8.60;99.90;;;;;;6248509;22;20020;-86
2022/11/12 00:03:03;;;;;;;9.98;5.28;;;8.60;99.90;;;;;;6236709;22;20020;-86
2022/11/12 00:05:29;;;;;;;9.25;5.10;;;8.60;99.90;;;;;;6277418;22;20011;-86
2022/11/12 00:07:55;;;;;;;8.70;6.13;;;8.50;99.90;;;;;;6248057;22;20016;-85
2022/11/12 00:10:21;;;;;;;8.18;4.97;;;8.50;99.90;;;;;;6249751;22;20448;-85
2022/11/12 00:12:47;;;;;;;7.63;5.18;;;8.50;99.90;;;;;;6276483;22;20012;-86
2022/11/12 00:15:13;;;;;;;10.18;5.70;;;8.50;99.90;;;;;;6275830;22;20031;-86
2022/11/12 00:17:38;;;;;;;9.45;5.70;;;8.40;99.90;;;;;;6249535;22;20018;-86
2022/11/12 00:20:05;;;;;;;9.23;5.63;;;8.40;99.90;;;;;;6249159;22;20019;-86
2022/11/12 00:22:31;;;;;;;9.13;6.00;;;8.40;99.90;;;;;;6248072;22;20444;-85
2022/11/12 00:24:57;;;;;;;8.55;5.60;;;8.30;99.90;;;;;;6276497;22;20011;-85
2022/11/12 00:27:22;;;;;;;7.90;5.32;;;8.30;99.90;;;;;;6249564;22;20408;-86
2022/11/12 00:29:48;;;;;;;7.70;5.13;;;8.20;99.90;;;;;;6275648;22;20011;-86
2022/11/12 00:32:14;;;;;;;9.10;5.82;;;8.20;99.90;;;;;;6249550;22;20443;-86
2022/11/12 00:34:39;;;;;;;9.90;5.78;;;8.20;99.90;;;;;;6248902;22;20344;-86
2022/11/12 00:37:05;;;;;;;8.63;5.43;;;8.10;99.90;;;;;;6275494;22;20099;-85
2022/11/12 00:39:31;;;;;;;9.13;5.85;;;8.10;99.90;;;;;;6276338;22;20039;-86
2022/11/12 00:41:57;;;;;;;10.10;5.82;;;8.10;99.90;;;;;;6249100;22;20011;-86
2022/11/12 00:44:23;;;;;;;10.70;5.88;;;8.10;99.90;;;;;;6275727;22;20471;-86
2022/11/12 00:46:49;;;;;;;14.13;6.30;;;8.00;99.90;;;;;;6276065;22;20093;-85
2022/11/12 00:49:15;;;;;;;8.35;5.80;;;8.00;99.90;;;;;;6248509;22;20098;-85
2022/11/12 00:51:40;;;;;;;8.50;5.60;;;8.00;99.90;;;;;;6248646;22;20015;-86
2022/11/12 00:54:06;;;;;;;9.73;6.32;;;7.90;99.90;;;;;;6248929;22;20097;-85
2022/11/12 00:56:32;;;;;;;10.43;5.82;;;7.90;99.90;;;;;;6275629;22;20074;-86
2022/11/12 00:58:58;;;;;;;8.80;6.13;;;7.90;99.90;;;;;;6249302;22;20015;-85
2022/11/12 01:01:25;;;;;;;8.73;5.80;;;7.90;99.90;;;;;;6249112;22;20008;-86
2022/11/12 01:03:51;;;;;;;10.10;6.10;;;7.90;99.90;;;;;;6275359;22;20019;-85
2022/11/12 01:06:20;;;;;;;9.93;6.05;;;7.80;99.90;;;;;;6249170;22;20039;-85
2022/11/12 01:08:47;;;;;;;9.73;5.90;;;7.80;99.90;;;;;;6248862;22;20023;-85
2022/11/12 01:11:16;;;;;;;8.50;6.35;;;7.80;99.90;;;;;;6248321;22;20137;-85
2022/11/12 01:13:44;;;;;;;8.90;5.93;;;7.70;99.90;;;;;;6248636;22;20020;-85
2022/11/12 01:16:21;;;;;;;9.45;6.65;;;7.80;99.90;;;;;;6249199;22;20054;-85
2022/11/12 01:18:52;;;;;;;10.43;5.80;;;7.70;99.90;;;;;;6274692;22;20509;-85
2022/11/12 01:21:18;;;;;;;9.82;6.40;;;7.70;99.90;;;;;;6276015;22;20046;-85
2022/11/12 01:23:43;;;;;;;9.60;6.25;;;7.70;99.90;;;;;;6275995;22;20370;-85
2022/11/12 01:26:14;;;;;;;11.18;6.57;;;7.70;99.90;;;;;;6249492;22;20018;-85
2022/11/12 01:28:42;;;;;;;9.23;6.50;;;7.60;99.90;;;;;;6278412;22;20041;-85
2022/11/12 01:31:25;;;;;;;9.93;6.57;;;7.60;99.90;;;;;;6251460;22;20458;-85
2022/11/12 01:33:57;;;;;;;10.98;6.07;;;7.60;99.90;;;;;;6250623;22;20094;-85
2022/11/12 01:36:24;;;;;;;8.98;6.10;;;7.60;99.90;;;;;;6278725;22;20335;-85
2022/11/12 01:38:51;;;;;;;10.75;6.80;;;7.60;99.90;;;;;;6249965;22;20039;-85
2022/11/12 01:41:20;;;;;;;9.77;6.45;;;7.60;99.90;;;;;;6250942;22;20018;-85
2022/11/12 01:43:46;;;;;;;8.85;6.00;;;7.60;99.90;;;;;;6250458;22;20336;-85
2022/11/12 01:46:20;;;;;;;8.18;5.80;;;7.50;99.90;;;;;;6250331;22;20026;-85
2022/11/12 01:48:54;;;;;;;10.70;6.70;;;7.50;99.90;;;;;;6250761;22;20020;-85
2022/11/12 01:51:22;;;;;;;9.90;6.45;;;7.50;99.90;;;;;;6278103;22;20016;-85
2022/11/12 01:53:51;;;;;;;9.40;6.90;;;7.50;99.90;;;;;;6276791;22;20018;-85
2022/11/12 01:56:19;;;;;;;9.98;6.75;;;7.50;99.90;;;;;;6277587;22;20392;-85
2022/11/12 01:58:48;;;;;;;8.27;5.80;;;7.40;99.90;;;;;;6250312;22;20022;-85
2022/11/12 02:01:13;;;;;;;11.60;6.72;;;7.40;99.90;;;;;;6275323;22;20007;-85
2022/11/12 02:03:39;;;;;;;9.23;6.25;;;7.40;99.90;;;;;;6277775;22;20440;-85
2022/11/12 02:06:09;;;;;;;10.43;6.38;;;7.40;99.90;;;;;;6250949;22;20019;-85
2022/11/12 02:08:37;;;;;;;11.23;6.35;;;7.40;99.90;;;;;;6249412;22;20019;-85
2022/11/12 02:11:10;;;;;;;9.73;6.15;;;7.30;99.90;;;;;;6250759;22;20030;-84
2022/11/12 02:16:20;;;;;;;9.35;6.55;;;7.30;99.90;;;;;;6251056;22;20110;-86
2022/11/12 02:18:45;;;;;;;9.73;6.07;;;7.20;99.90;;;;;;6250440;22;20095;-85
2022/11/12 02:21:11;;;;;;;10.40;6.47;;;7.20;99.90;;;;;;6249474;22;20019;-85
2022/11/12 02:23:37;;;;;;;10.25;6.72;;;7.20;99.90;;;;;;6277963;22;20022;-85
2022/11/12 02:26:03;;;;;;;8.55;6.32;;;7.20;99.90;;;;;;6265511;22;20057;-85
2022/11/12 02:28:31;;;;;;;9.93;6.32;;;7.20;99.90;;;;;;6277043;22;20332;-85
2022/11/12 02:30:57;;;;;;;10.30;6.55;;;7.20;99.90;;;;;;6277589;22;20012;-85
2022/11/12 02:33:22;;;;;;;10.23;6.90;;;7.10;99.90;;;;;;6277453;22;20050;-85
2022/11/12 02:35:48;;;;;;;11.02;6.78;;;7.10;99.90;;;;;;6249061;22;20024;-85
2022/11/12 02:38:13;;;;;;;11.10;6.63;;;7.10;99.90;;;;;;6250610;22;20070;-85
2022/11/12 02:40:39;;;;;;;10.25;6.95;;;7.10;99.90;;;;;;6278050;22;20083;-85
2022/11/12 02:43:04;;;;;;;8.88;6.05;;;7.10;99.90;;;;;;6276198;22;20020;-85
2022/11/12 02:45:31;;;;;;;10.35;6.63;;;7.00;99.90;;;;;;6250356;22;20119;-85
2022/11/12 02:47:57;;;;;;;10.85;6.50;;;7.00;99.90;;;;;;6250149;22;20062;-85
2022/11/12 02:50:22;;;;;;;10.02;6.57;;;7.00;99.90;;;;;;6276904;22;20111;-85
2022/11/12 02:52:48;;;;;;;10.55;6.82;;;7.00;99.90;;;;;;6250310;22;20035;-85
2022/11/12 02:55:13;;;;;;;9.05;6.10;;;7.00;99.90;;;;;;6250328;22;20015;-85
2022/11/12 02:57:39;;;;;;;10.32;6.95;;;6.90;99.90;;;;;;6276393;22;20074;-85
2022/11/12 03:00:09;;;;;;;10.65;6.70;;;6.90;99.90;;;;;;6250199;22;20317;-85
2022/11/12 03:02:41;;;;;;;10.98;6.63;;;6.90;99.90;;;;;;6250189;22;20316;-85
2022/11/12 03:05:08;;;;;;;9.82;6.68;;;6.90;99.90;;;;;;6249629;22;20019;-85
2022/11/12 03:07:34;;;;;;;9.77;6.53;;;6.90;99.90;;;;;;6277034;22;20020;-85
2022/11/12 03:10:00;;;;;;;9.35;6.20;;;6.90;99.90;;;;;;6249023;22;20040;-85
2022/11/12 03:12:25;;;;;;;11.02;6.65;;;6.80;99.90;;;;;;6277951;22;20020;-85
2022/11/12 03:14:51;;;;;;;9.80;7.20;;;6.80;99.90;;;;;;6249726;22;20448;-85
2022/11/12 03:17:16;;;;;;;9.73;6.90;;;6.80;99.90;;;;;;6276870;22;20324;-85
2022/11/12 03:19:42;;;;;;;9.52;6.72;;;6.80;99.90;;;;;;6276238;22;20094;-84
2022/11/12 03:22:07;;;;;;;11.52;7.35;;;6.80;99.90;;;;;;6249795;22;20023;-84
2022/11/12 03:24:33;;;;;;;12.23;6.63;;;6.80;99.90;;;;;;6248268;22;20016;-83
2022/11/12 03:26:58;;;;;;;10.77;7.03;;;6.70;99.90;;;;;;6249662;22;20452;-83
2022/11/12 03:29:25;;;;;;;10.02;6.78;;;6.70;99.90;;;;;;6276679;22;20383;-83
2022/11/12 03:31:50;;;;;;;10.18;7.07;;;6.70;99.90;;;;;;6276071;22;20016;-83
2022/11/12 03:34:16;;;;;;;9.48;6.50;;;6.70;99.90;;;;;;6276722;22;20015;-84
2022/11/12 03:36:41;;;;;;;10.43;6.78;;;6.70;99.90;;;;;;6277014;22;20067;-84
2022/11/12 03:39:07;;;;;;;11.27;6.75;;;6.70;99.90;;;;;;6248828;22;20016;-84
2022/11/12 03:41:33;;;;;;;11.25;7.47;;;6.60;99.90;;;;;;6249524;22;20117;-84
2022/11/12 03:43:58;;;;;;;10.07;7.35;;;6.70;99.90;;;;;;6249661;22;20074;-84
2022/11/12 03:46:24;;;;;;;10.23;7.25;;;6.60;99.90;;;;;;6275412;22;20019;-83
2022/11/12 03:48:49;;;;;;;10.07;7.05;;;6.60;99.90;;;;;;6249211;22;20444;-83
2022/11/12 03:51:16;;;;;;;9.90;6.68;;;6.60;99.90;;;;;;6249800;22;20035;-83
2022/11/12 03:53:41;;;;;;;8.68;6.68;;;6.60;99.90;;;;;;6248376;22;20015;-83
2022/11/12 03:56:07;;;;;;;9.60;6.75;;;6.60;99.90;;;;;;6250067;22;20455;-83
2022/11/12 03:58:32;;;;;;;9.65;6.95;;;6.60;99.90;;;;;;6276663;22;20086;-83
2022/11/12 04:00:58;;;;;;;10.80;6.93;;;6.60;99.90;;;;;;6249172;22;20023;-83
2022/11/12 04:03:23;;;;;;;9.38;6.60;;;6.50;99.90;;;;;;6249795;22;20114;-83
2022/11/12 04:08:36;;;;;;;9.43;6.40;;;6.50;99.90;;;;;;6248752;22;20023;-83
2022/11/12 04:11:05;;;;;;;9.68;6.88;;;6.50;99.90;;;;;;6249458;22;20086;-83
2022/11/12 04:13:31;;;;;;;9.68;7.47;;;6.50;99.90;;;;;;6275938;22;20055;-83
2022/11/12 04:21:49;;;;;;;9.30;6.50;;;6.40;99.90;;;;;;6248869;22;20510;-85
2022/11/12 04:27:08;;;;;;;11.00;6.78;;;6.40;99.90;;;;;;6249625;22;20020;-85
2022/11/12 04:32:19;;;;;;;10.80;7.28;;;6.40;99.90;;;;;;6249538;22;20016;-84
2022/11/12 04:34:44;;;;;;;9.93;6.70;;;6.40;99.90;;;;;;6247844;22;20078;-84
2022/11/12 04:37:10;;;;;;;9.13;6.72;;;6.40;99.90;;;;;;6276999;22;20324;-84
2022/11/12 04:39:35;;;;;;;10.23;6.97;;;6.40;99.90;;;;;;6248905;22;20026;-84
2022/11/12 04:45:03;;;;;;;8.60;6.57;;;6.40;99.90;;;;;;6248748;22;20020;-84
2022/11/12 04:47:35;;;;;;;10.13;6.22;;;6.30;99.90;;;;;;6276573;22;20016;-84
2022/11/12 04:50:21;;;;;;;9.18;6.38;;;6.30;99.90;;;;;;6247972;22;20016;-84
2022/11/12 04:52:47;;;;;;;9.88;6.75;;;6.30;99.90;;;;;;6248495;22;20456;-84
2022/11/12 04:55:13;;;;;;;10.20;6.30;;;6.30;99.90;;;;;;6249343;22;20022;-84
2022/11/12 04:57:38;;;;;;;8.27;6.50;;;6.30;99.90;;;;;;6275734;22;20420;-84
2022/11/12 05:00:05;;;;;;;9.43;6.00;;;6.30;99.90;;;;;;6276371;22;20091;-84
2022/11/12 05:02:30;;;;;;;9.57;6.53;;;6.30;99.90;;;;;;6275933;22;20021;-85
2022/11/12 05:04:56;;;;;;;8.50;6.13;;;6.30;99.90;;;;;;6248970;22;20014;-84
2022/11/12 05:07:21;;;;;;;8.25;5.82;;;6.20;99.90;;;;;;6276700;22;20074;-84
2022/11/12 05:09:47;;;;;;;9.75;6.18;;;6.20;99.90;;;;;;6247983;22;20499;-84
2022/11/12 05:12:13;;;;;;;9.30;6.05;;;6.20;99.90;;;;;;6275040;22;20066;-83
2022/11/12 05:14:38;;;;;;;8.48;5.50;;;6.20;99.90;;;;;;6275703;22;20440;-84
2022/11/12 05:17:04;;;;;;;9.82;5.80;;;6.20;99.90;;;;;;6275611;22;20016;-84
2022/11/12 05:19:30;;;;;;;10.40;6.05;;;6.20;99.90;;;;;;6248973;22;20074;-84
2022/11/12 05:22:04;;;;;;;7.78;5.57;;;6.20;99.90;;;;;;6247774;22;20046;-84
2022/11/12 05:24:42;;;;;;;10.23;6.10;;;6.20;99.90;;;;;;6248129;22;20016;-84
2022/11/12 05:27:14;;;;;;;9.02;6.32;;;6.20;99.90;;;;;;6276913;22;20051;-84
2022/11/12 05:29:39;;;;;;;7.97;6.18;;;6.20;99.90;;;;;;6248640;22;20475;-84
2022/11/12 05:32:06;;;;;;;7.82;5.38;;;6.10;99.90;;;;;;6248138;22;20012;-84
2022/11/12 05:34:32;;;;;;;9.35;5.97;;;6.10;99.90;;;;;;6249004;22;20020;-85
2022/11/12 05:36:59;;;;;;;9.45;6.15;;;6.10;99.90;;;;;;6249063;22;20440;-84
2022/11/12 05:39:25;;;;;;;8.55;6.35;;;6.10;99.90;;;;;;6275275;22;20022;-83
2022/11/12 05:41:50;;;;;;;8.13;5.50;;;6.10;99.90;;;;;;6248746;22;20020;-83
2022/11/12 05:44:16;;;;;;;8.98;6.18;;;6.10;99.90;;;;;;6249296;22;20348;-85
2022/11/12 05:46:42;;;;;;;10.50;6.43;;;6.10;99.90;;;;;;6248104;22;20388;-84
2022/11/12 05:49:08;;;;;;;8.48;5.82;;;6.10;99.90;;;;;;6248917;22;20008;-85
2022/11/12 05:51:33;;;;;;;9.43;6.07;;;6.00;99.90;;;;;;6246911;22;20824;-86
2022/11/12 05:54:00;;;;;;;8.55;5.90;;;6.00;99.90;;;;;;6275891;22;20008;-84
2022/11/12 05:56:25;;;;;;;8.57;5.47;;;6.00;99.90;;;;;;6275645;22;20332;-84
2022/11/12 05:58:51;;;;;;;8.27;5.90;;;6.00;99.90;;;;;;6247598;22;20011;-83
2022/11/12 06:01:17;;;;;;;9.15;6.30;;;6.00;99.90;;;;;;6275977;22;20089;-83
2022/11/12 06:03:42;;;;;;;8.95;6.00;;;6.00;99.90;;;;;;6247715;22;20019;-83
2022/11/12 06:06:08;;;;;;;8.70;6.40;;;6.00;99.90;;;;;;6247636;22;20055;-83
2022/11/12 06:08:34;;;;;;;8.38;6.10;;;5.90;99.90;;;;;;6248212;22;20121;-83
2022/11/12 06:10:59;;;;;;;8.38;6.55;;;6.00;99.90;;;;;;6248754;22;20317;-83
2022/11/12 06:13:25;;;;;;;8.05;5.50;;;5.90;99.90;;;;;;6277088;22;20015;-83
2022/11/12 06:15:52;;;;;;;8.18;5.93;;;5.90;99.90;;;;;;6250281;22;20011;-83
2022/11/12 06:18:18;;;;;;;8.20;5.95;;;5.90;99.90;;;;;;6250395;22;20103;-83
2022/11/12 06:20:44;;;;;;;7.63;5.68;;;5.90;99.90;;;;;;6276395;22;20494;-86
2022/11/12 06:23:10;;;;;;;10.00;6.80;;;6.00;99.90;;;;;;6278095;22;20019;-84
2022/11/12 06:25:35;;;;;;;8.70;6.18;;;5.90;99.90;;;;;;6278700;22;20451;-93
2022/11/12 06:28:01;;;;;;;8.25;5.82;;;6.00;99.90;;;;;;6251321;22;20098;-92
2022/11/12 06:30:27;;;;;;;9.20;5.80;;;6.00;99.90;;;;;;6251416;22;20444;-91
2022/11/12 06:32:52;;;;;;;8.55;6.00;;;5.90;99.90;;;;;;6250840;22;20022;-92
2022/11/12 06:35:18;;;;;;;7.85;5.82;;;5.90;99.90;;;;;;6250530;22;20071;-91
2022/11/12 06:37:46;;;;;;;8.82;6.20;;;5.90;99.90;;;;;;6250838;22;20023;-84
2022/11/12 06:40:12;;;;;;;8.43;5.95;;;6.00;99.90;;;;;;6250199;22;20016;-83
2022/11/12 06:42:38;;;;;;;9.43;5.88;;;5.90;99.90;;;;;;6248250;22;20059;-83
2022/11/12 06:45:04;;;;;;;7.07;5.25;;;6.00;99.90;;;;;;6277797;22;20391;-83
2022/11/12 06:47:30;;;;;;;7.65;5.63;;;6.00;99.90;;;;;;6250542;22;20016;-85
2022/11/12 06:49:55;;;;;;;7.80;5.53;;;6.00;99.90;;;;;;6276636;22;20003;-83
2022/11/12 06:52:21;;;;;;;8.95;5.57;;;6.00;99.90;;;;;;6249378;22;20090;-82
2022/11/12 06:54:46;;;;;;;8.45;5.97;;;6.00;99.90;;;;;;6277139;22;20022;-83
2022/11/12 06:57:12;;;;;;;8.73;5.40;;;6.00;99.90;;;;;;6248917;22;20105;-84
2022/11/12 06:59:38;;;;;;;8.55;6.25;;;6.00;99.90;;;;;;6277144;22;20019;-82
2022/11/12 07:02:04;;;;;;;8.57;5.57;;;6.00;99.90;;;;;;6249216;22;20150;-82
2022/11/12 07:04:30;;;;;;;9.98;5.75;;;6.10;99.90;;;;;;6277665;22;20022;-82
2022/11/12 07:06:55;;;;;;;7.55;5.10;;;6.10;99.90;;;;;;6277229;22;20371;-83
2022/11/12 07:09:21;;;;;;;9.05;5.70;;;6.10;99.90;;;;;;6277031;22;20018;-84
2022/11/12 07:11:46;;;;;;;8.93;5.93;;;6.10;99.90;;;;;;6277217;22;20043;-82
2022/11/12 07:14:12;;;;;;;8.50;5.78;;;6.10;99.90;;;;;;6250137;22;20019;-83
2022/11/12 07:16:37;;;;;;;9.60;5.50;;;6.10;99.90;;;;;;6275662;22;20015;-83
2022/11/12 07:19:03;;;;;;;7.80;5.50;;;6.10;99.90;;;;;;6249888;22;20008;-83
2022/11/12 07:21:29;;;;;;;8.40;5.60;;;6.10;99.90;;;;;;6275971;22;20015;-83
2022/11/12 07:23:54;;;;;;;9.25;5.70;;;6.10;99.90;;;;;;6275394;22;20071;-83
2022/11/12 07:26:22;;;;;;;8.50;5.50;;;6.20;99.90;;;;;;6249704;22;20015;-83
2022/11/12 07:28:50;;;;;;;9.35;5.43;;;6.20;99.90;;;;;;6250054;22;20091;-83
2022/11/12 07:31:17;;;;;;;10.07;5.50;;;6.20;99.90;;;;;;6248908;22;20016;-83
2022/11/12 07:33:43;;;;;;;7.53;5.53;;;6.20;99.90;;;;;;6249462;22;20057;-83
2022/11/12 07:36:12;;;;;;;8.88;5.72;;;6.20;99.90;;;;;;6277097;22;20023;-84
2022/11/12 07:38:39;;;;;;;10.20;5.28;;;6.20;99.90;;;;;;6246128;22;20015;-82
2022/11/12 07:41:16;;;;;;;9.13;5.28;;;6.20;99.90;;;;;;6248519;22;20058;-82
2022/11/12 07:43:44;;;;;;;8.85;5.18;;;6.20;99.90;;;;;;6274888;22;20042;-82
2022/11/12 07:46:15;;;;;;;9.63;5.20;;;6.20;99.90;;;;;;6248794;22;20150;-83
2022/11/12 07:48:43;;;;;;;12.50;6.57;;;6.30;99.90;;;;;;6248500;22;20090;-82
2022/11/12 07:51:15;;;;;;;10.07;5.38;;;6.30;99.90;;;;;;6275539;22;20328;-82
2022/11/12 07:53:42;;;;;;;9.20;5.32;;;6.30;99.90;;;;;;6249068;22;20015;-84
2022/11/12 07:56:13;;;;;;;9.23;5.68;;;6.30;99.90;;;;;;6275570;22;20109;-83
2022/11/12 07:58:39;;;;;;;8.65;5.43;;;6.30;99.90;;;;;;6247692;22;20012;-83
2022/11/12 08:01:10;;;;;;;10.45;5.50;;;6.30;99.90;;;;;;6248628;22;20343;-83
2022/11/12 08:03:36;;;;;;;16.55;7.65;;;6.30;99.90;;;;;;6275353;22;20019;-84
2022/11/12 08:06:02;;;;;;;10.85;6.00;;;6.40;99.90;;;;;;6247173;22;20050;-84
2022/11/12 08:08:28;;;;;;;9.48;5.90;;;6.40;99.90;;;;;;6248409;22;20043;-84
2022/11/12 08:10:57;;;;;;;9.48;5.88;;;6.40;99.90;;;;;;6275627;22;20015;-84
2022/11/12 08:13:23;;;;;;;10.75;6.35;;;6.40;99.90;;;;;;6248182;22;20023;-84
2022/11/12 08:15:49;;;;;;;9.93;5.82;;;6.40;99.90;;;;;;6249063;22;20007;-85
2022/11/12 08:18:15;;;;;;;9.77;6.28;;;6.50;99.90;;;;;;6276542;22;20457;-84
2022/11/12 08:20:41;;;;;;;10.23;6.43;;;6.50;99.90;;;;;;6246762;22;20015;-85
2022/11/12 08:23:07;;;;;;;11.52;6.40;;;6.50;99.90;;;;;;6248937;22;20055;-85
2022/11/12 08:25:33;;;;;;;11.60;6.15;;;6.50;99.90;;;;;;6249146;22;20026;-85
2022/11/12 08:27:59;;;;;;;12.02;6.47;;;6.50;99.90;;;;;;6273664;22;20015;-84
2022/11/12 08:30:25;;;;;;;11.43;6.70;;;6.60;99.90;;;;;;6274600;22;20018;-84
2022/11/12 08:33:04;;;;;;;27.05;10.45;;;6.60;99.90;;;;;;6276141;22;20020;-84
2022/11/12 08:35:31;;;;;;;13.68;7.22;;;6.60;99.90;;;;;;6248353;22;20071;-84
2022/11/12 08:38:02;;;;;;;14.27;7.55;;;6.60;99.90;;;;;;6248853;22;20022;-84
2022/11/12 08:40:30;;;;;;;12.85;7.18;;;6.70;99.90;;;;;;6248172;22;20015;-85
2022/11/12 08:43:07;;;;;;;34.25;9.38;;;6.70;99.90;;;;;;6248772;22;20020;-85
2022/11/12 08:45:35;;;;;;;13.18;7.57;;;6.70;99.90;;;;;;6249125;22;20020;-84
2022/11/12 08:48:04;;;;;;;78.68;14.65;;;6.70;99.90;;;;;;6248135;22;20382;-84
2022/11/12 08:50:29;;;;;;;37.90;12.60;;;6.80;99.90;;;;;;6248636;22;20354;-84
2022/11/12 08:53:04;;;;;;;18.95;10.68;;;6.80;99.90;;;;;;6276037;22;20101;-84
2022/11/12 08:55:30;;;;;;;13.00;8.18;;;6.80;99.90;;;;;;6248217;22;20094;-84
2022/11/12 08:58:00;;;;;;;15.75;9.52;;;6.80;99.90;;;;;;6248563;22;20011;-84
2022/11/12 09:00:30;;;;;;;14.90;9.13;;;6.90;99.90;;;;;;6248607;22;20022;-84
2022/11/12 09:02:59;;;;;;;23.73;10.13;;;6.90;99.90;;;;;;6247822;22;20459;-84
2022/11/12 09:05:25;;;;;;;24.30;12.98;;;6.90;99.90;;;;;;6248604;22;20012;-84
2022/11/12 09:08:18;;;;;;;13.10;8.18;;;7.00;99.90;;;;;;6249001;22;20436;-84
2022/11/12 09:10:44;;;;;;;15.65;9.43;;;7.00;99.90;;;;;;6245013;22;20128;-84
2022/11/12 09:13:10;;;;;;;29.63;12.20;;;7.00;99.90;;;;;;6248865;22;20015;-84
2022/11/12 09:15:36;;;;;;;37.95;12.95;;;7.10;99.90;;;;;;6275054;22;20016;-84
2022/11/12 09:18:04;;;;;;;91.60;14.50;;;7.10;99.90;;;;;;6248637;22;20425;-84
2022/11/12 09:20:30;;;;;;;53.67;12.45;;;7.20;99.90;;;;;;6248898;22;20015;-84
2022/11/12 09:23:08;;;;;;;13.90;9.60;;;7.20;99.90;;;;;;6247507;22;20015;-84
2022/11/12 09:25:35;;;;;;;29.45;12.65;;;7.20;99.90;;;;;;6275822;22;20086;-85
2022/11/12 09:28:27;;;;;;;23.60;11.32;;;7.20;99.90;;;;;;6249040;22;20519;-84
2022/11/12 09:30:54;;;;;;;62.22;12.50;;;7.20;99.90;;;;;;6243561;22;20102;-83
2022/11/12 09:33:22;;;;;;;21.10;10.50;;;7.30;99.90;;;;;;6275196;22;20019;-84
2022/11/12 09:35:49;;;;;;;37.63;15.63;;;7.30;99.90;;;;;;6248044;22;20027;-84
2022/11/12 09:38:16;;;;;;;54.75;18.17;;;7.30;99.90;;;;;;6275205;22;20018;-84
2022/11/12 09:40:51;;;;;;;67.30;19.63;;;7.30;99.90;;;;;;6247497;22;20518;-84
2022/11/12 09:43:46;;;;;;;16.58;11.63;;;7.40;99.90;;;;;;6247670;22;20019;-85
2022/11/12 09:46:37;;;;;;;17.92;12.02;;;7.40;99.90;;;;;;6247970;22;20414;-84
2022/11/12 09:49:22;;;;;;;22.17;13.40;;;7.40;99.90;;;;;;6277865;22;20111;-84
2022/11/12 09:52:04;;;;;;;31.85;17.23;;;7.50;99.90;;;;;;6249380;22;20020;-84
2022/11/12 09:54:32;;;;;;;17.85;11.88;;;7.50;99.90;;;;;;6250597;22;20015;-83
2022/11/12 09:56:58;;;;;;;19.60;12.98;;;7.50;99.90;;;;;;6278244;22;20030;-84
2022/11/12 09:59:29;;;;;;;21.45;13.70;;;7.50;99.90;;;;;;6249849;22;20019;-84
2022/11/12 10:02:22;;;;;;;27.17;15.63;;;7.60;99.90;;;;;;6250161;22;20015;-84
2022/11/12 10:05:02;;;;;;;21.15;12.68;;;7.60;99.90;;;;;;6277062;22;20336;-84
2022/11/12 10:07:56;;;;;;;18.33;12.45;;;7.60;99.90;;;;;;6278219;22;20074;-84
2022/11/12 10:10:54;;;;;;;;;;;7.70;99.90;;;;;;6278315;22;20019;-84
2022/11/12 10:13:50;;;;;;;23.25;16.30;;;7.70;99.90;;;;;;6151783;22;19915;-83
2022/11/12 10:16:41;;;;;;;21.83;15.10;;;7.70;99.90;;;;;;6250080;22;20521;-84
2022/11/12 10:19:19;;;;;;;19.80;14.32;;;7.80;99.90;;;;;;6276882;22;20012;-84
2022/11/12 10:21:59;;;;;;;21.05;13.32;;;7.80;99.90;;;;;;6277591;22;20019;-84
2022/11/12 10:24:32;;;;;;;20.02;13.88;;;7.90;99.90;;;;;;6250323;22;20313;-84
2022/11/12 10:26:58;;;;;;;17.45;13.20;;;7.90;99.90;;;;;;6248177;22;20016;-84
2022/11/12 10:29:42;;;;;;;18.08;12.55;;;8.00;99.90;;;;;;6277760;22;20371;-84
2022/11/12 10:32:14;;;;;;;17.13;11.30;;;8.10;99.90;;;;;;6249921;22;20042;-84
2022/11/12 10:34:39;;;;;;;18.85;11.80;;;8.10;99.90;;;;;;6248406;22;20347;-84
2022/11/12 10:37:27;;;;;;;20.92;13.57;;;8.20;99.90;;;;;;6250029;22;20022;-83
2022/11/12 10:39:53;;;;;;;20.40;14.25;;;8.20;99.90;;;;;;6276720;22;20034;-84
2022/11/12 10:42:21;;;;;;;17.67;12.15;;;8.30;99.90;;;;;;6249031;22;20015;-84
2022/11/12 10:44:48;;;;;;;15.10;10.85;;;8.40;99.90;;;;;;6250270;22;20012;-84
2022/11/12 10:47:41;;;;;;;19.45;12.90;;;8.40;99.90;;;;;;6276098;22;20452;-83
2022/11/12 10:50:07;;;;;;;22.23;13.75;;;8.50;99.90;;;;;;6249824;22;20090;-84
2022/11/12 10:52:33;;;;;;;15.55;11.50;;;8.50;99.90;;;;;;6249474;22;20095;-84
2022/11/12 10:55:21;;;;;;;16.83;11.82;;;8.60;99.90;;;;;;6249050;22;20022;-83
2022/11/12 10:58:08;;;;;;;24.80;12.70;;;8.60;99.90;;;;;;6276850;22;20213;-84
2022/11/12 11:00:33;;;;;;;17.10;11.23;;;8.70;99.90;;;;;;6277056;22;20015;-84
2022/11/12 11:03:02;;;;;;;18.33;11.82;;;8.70;99.90;;;;;;6276638;22;20490;-84
2022/11/12 11:05:30;;;;;;;17.92;12.63;;;8.80;99.90;;;;;;6250185;22;20007;-84
2022/11/12 11:07:56;;;;;;;17.27;12.32;;;8.90;99.90;;;;;;6249911;22;20046;-83
2022/11/12 11:10:28;;;;;;;17.13;11.70;;;8.90;99.90;;;;;;6248094;22;20012;-84
2022/11/12 11:13:26;;;;;;;14.52;9.93;;;9.00;99.90;;;;;;6275036;22;20016;-83
2022/11/12 11:16:04;;;;;;;19.35;12.27;;;9.20;99.90;;;;;;6198143;22;20012;-84
2022/11/12 11:18:34;;;;;;;15.98;11.50;;;9.10;99.90;;;;;;6263993;22;20321;-86
2022/11/12 11:21:15;;;;;;;17.65;12.55;;;9.20;99.90;;;;;;6276576;22;20451;-84
2022/11/12 11:24:01;;;;;;;17.55;12.55;;;9.30;99.90;;;;;;6258537;22;20020;-84
2022/11/12 11:26:37;;;;;;;15.27;11.40;;;9.30;99.90;;;;;;6281537;22;20012;-85
2022/11/12 11:29:20;;;;;;;17.00;11.52;;;9.40;99.90;;;;;;6277455;22;20085;-84
2022/11/12 11:32:04;;;;;;;16.77;12.27;;;9.50;99.90;;;;;;6249271;22;20447;-85
2022/11/12 11:34:30;;;;;;;17.02;11.90;;;9.60;99.90;;;;;;6249675;22;20012;-85
2022/11/12 11:37:07;;;;;;;14.40;11.23;;;9.70;99.90;;;;;;6247771;22;20065;-85
2022/11/12 11:39:50;;;;;;;17.50;12.32;;;9.70;99.90;;;;;;6249590;22;20038;-85
2022/11/12 11:42:56;;;;;;;14.75;10.95;;;9.80;99.90;;;;;;6276207;22;20058;-84
2022/11/12 11:45:43;;;;;;;16.80;11.35;;;9.80;99.90;;;;;;6248176;22;20023;-85
2022/11/12 11:48:32;;;;;;;16.52;12.98;;;9.90;99.90;;;;;;6249413;22;20094;-85
2022/11/12 11:51:32;;;;;;;17.65;13.07;;;10.00;99.90;;;;;;6227928;22;20436;-85
2022/11/12 11:54:12;;;;;;;18.20;12.40;;;10.10;99.90;;;;;;6260200;22;20020;-87
2022/11/12 11:56:42;;;;;;;16.63;12.50;;;10.20;99.90;;;;;;6248629;22;20020;-89
2022/11/12 11:59:36;;;;;;;16.23;11.82;;;10.20;99.90;;;;;;6275503;22;20012;-87
2022/11/12 12:02:23;;;;;;;15.63;11.90;;;10.30;99.90;;;;;;6275839;22;20011;-87
2022/11/12 12:05:02;;;;;;;17.17;12.00;;;10.40;99.90;;;;;;6247533;22;20065;-87
2022/11/12 12:07:52;;;;;;;16.40;11.48;;;10.50;99.90;;;;;;6249510;22;20456;-87
2022/11/12 12:10:24;;;;;;;17.17;12.80;;;10.60;99.90;;;;;;6248735;22;20016;-87
2022/11/12 12:13:04;;;;;;;15.75;11.15;;;10.60;99.90;;;;;;6274956;22;20098;-87
2022/11/12 12:16:13;;;;;;;16.55;11.50;;;10.70;99.90;;;;;;6276476;22;20015;-86
2022/11/12 12:18:48;;;;;;;14.23;11.05;;;10.80;99.90;;;;;;6248081;22;20015;-85
2022/11/12 12:21:19;;;;;;;17.50;12.10;;;10.80;99.90;;;;;;6249270;22;20444;-86
2022/11/12 12:23:58;;;;;;;15.40;11.02;;;10.90;99.90;;;;;;6275866;22;20093;-85
2022/11/12 12:26:40;;;;;;;13.82;10.43;;;11.00;99.90;;;;;;6248552;22;20016;-86
2022/11/12 12:29:19;;;;;;;15.63;10.27;;;11.00;99.90;;;;;;6276279;22;20072;-86
2022/11/12 12:32:19;;;;;;;13.73;10.05;;;11.10;99.90;;;;;;6248984;22;20015;-86
2022/11/12 12:34:50;;;;;;;14.98;11.10;;;11.10;99.90;;;;;;6247609;22;20514;-87
2022/11/12 12:37:32;;;;;;;14.75;10.73;;;11.20;99.90;;;;;;6248793;22;20015;-87
2022/11/12 12:40:20;;;;;;;14.73;10.85;;;11.30;99.90;;;;;;6274870;22;20069;-87
2022/11/12 12:43:09;;;;;;;15.20;10.90;;;11.30;99.90;;;;;;6249048;22;20023;-87
2022/11/12 12:45:41;;;;;;;12.80;9.98;;;11.40;99.90;;;;;;6276193;22;20061;-86
2022/11/12 12:48:14;;;;;;;16.02;9.75;;;11.40;99.90;;;;;;6248301;22;20015;-85
2022/11/12 12:50:41;;;;;;;15.00;10.35;;;11.50;99.90;;;;;;6275013;22;20012;-86
2022/11/12 12:53:17;;;;;;;16.77;10.50;;;11.50;99.90;;;;;;6275915;22;20026;-85
2022/11/12 12:55:57;;;;;;;14.55;9.88;;;11.60;99.90;;;;;;6247353;22;20020;-86
2022/11/12 12:58:24;;;;;;;16.13;9.88;;;11.60;99.90;;;;;;6276233;22;20015;-84
2022/11/12 13:00:56;;;;;;;13.13;9.57;;;11.70;99.90;;;;;;6274384;22;20030;-87
2022/11/12 13:03:40;;;;;;;14.80;10.23;;;11.70;99.90;;;;;;6275104;22;20024;-86
2022/11/12 13:06:14;;;;;;;13.98;9.70;;;11.80;99.90;;;;;;6246916;22;20379;-86
2022/11/12 13:08:39;;;;;;;13.55;9.73;;;11.80;99.90;;;;;;6273141;22;20016;-84
2022/11/12 13:11:05;;;;;;;14.00;10.02;;;11.90;99.90;;;;;;6247955;22;20020;-85
2022/11/12 13:13:34;;;;;;;12.85;9.63;;;11.90;99.90;;;;;;6247500;22;20008;-85
2022/11/12 13:16:02;;;;;;;14.50;9.18;;;12.00;99.90;;;;;;6272504;22;20098;-86
2022/11/12 13:18:37;;;;;;;13.18;9.48;;;12.00;99.90;;;;;;6247853;22;20026;-85
2022/11/12 13:21:15;;;;;;;13.73;9.63;;;12.00;99.90;;;;;;6248548;22;20225;-86
2022/11/12 13:24:06;;;;;;;13.50;9.00;;;12.00;99.90;;;;;;6247439;22;20020;-84